CheckWX is a tool to help pilots better visualize weather data.  It is not intended as a substitute for an official pre-flight weather briefing.

05:24:36 UTC

KFCM METAR
Flying Cloud Airport Airport
Minneapolis, Minnesota, USA
Current

32 mins ago

KFCM 110453Z AUTO 36004KT 10SM CLR 23/18 A2992 RMK AO2 SLP127 T02280178
Observed
Jul-11 @ 04:53 UTC
Wind
  • 360° at 4 KTS
Visibility
10 SM
Flight Rules
VFR
Cloud Levels
  • Clear skies
Temperature
23°C / 73°F
Dewpoint
18°C / 64°F
Humidity
74%
Altimeter
29.92" Hg
Pressure
1013.22 hPa
Previous

2 hours ago

KFCM 110353Z AUTO 00000KT 10SM CLR 23/17 A2993 RMK AO2 SLP130 T02330167
Observed
Jul-11 @ 03:53 UTC
Visibility
10 SM
Flight Rules
VFR
Cloud Levels
  • Clear skies
Temperature
23°C / 73°F
Dewpoint
17°C / 63°F
Humidity
69%
Altimeter
29.93" Hg
Pressure
1013.52 hPa
Previous

3 hours ago

KFCM 110253Z AUTO 00000KT 10SM CLR 24/17 A2995 RMK AO2 SLP135 T02440167 53004
Observed
Jul-11 @ 02:53 UTC
Visibility
10 SM
Flight Rules
VFR
Cloud Levels
  • Clear skies
Temperature
24°C / 75°F
Dewpoint
17°C / 63°F
Humidity
65%
Altimeter
29.95" Hg
Pressure
1014.22 hPa